sensor_id;sensor_type;location;lat;lon;timestamp;P1;durP1;ratioP1;P2;durP2;ratioP2
76373;SDS011;65197;50.164;8.012;2022-12-18T00:00:58;8.45;;;3.85;;
76373;SDS011;65197;50.164;8.012;2022-12-18T00:03:24;9.57;;;4.53;;
76373;SDS011;65197;50.164;8.012;2022-12-18T00:05:50;8.80;;;5.03;;
76373;SDS011;65197;50.164;8.012;2022-12-18T00:08:17;9.60;;;4.22;;
76373;SDS011;65197;50.164;8.012;2022-12-18T00:10:43;10.82;;;4.80;;
76373;SDS011;65197;50.164;8.012;2022-12-18T00:13:09;10.50;;;5.55;;
76373;SDS011;65197;50.164;8.012;2022-12-18T00:15:35;10.77;;;5.03;;
76373;SDS011;65197;50.164;8.012;2022-12-18T00:18:01;9.13;;;4.95;;
76373;SDS011;65197;50.164;8.012;2022-12-18T00:20:26;8.48;;;4.97;;
76373;SDS011;65197;50.164;8.012;2022-12-18T00:22:52;13.27;;;7.03;;
76373;SDS011;65197;50.164;8.012;2022-12-18T00:25:18;16.42;;;6.32;;
76373;SDS011;65197;50.164;8.012;2022-12-18T00:27:45;14.07;;;6.15;;
76373;SDS011;65197;50.164;8.012;2022-12-18T00:30:10;13.80;;;6.95;;
76373;SDS011;65197;50.164;8.012;2022-12-18T00:32:36;16.65;;;7.05;;
76373;SDS011;65197;50.164;8.012;2022-12-18T00:35:02;15.98;;;8.00;;
76373;SDS011;65197;50.164;8.012;2022-12-18T00:37:28;11.30;;;6.20;;
76373;SDS011;65197;50.164;8.012;2022-12-18T00:39:53;14.25;;;7.32;;
76373;SDS011;65197;50.164;8.012;2022-12-18T00:42:19;13.38;;;7.70;;
76373;SDS011;65197;50.164;8.012;2022-12-18T00:45:03;12.73;;;6.82;;
76373;SDS011;65197;50.164;8.012;2022-12-18T00:47:29;14.52;;;7.20;;
76373;SDS011;65197;50.164;8.012;2022-12-18T00:49:54;18.73;;;7.40;;
76373;SDS011;65197;50.164;8.012;2022-12-18T00:52:20;15.18;;;6.55;;
76373;SDS011;65197;50.164;8.012;2022-12-18T00:54:45;17.00;;;8.45;;
76373;SDS011;65197;50.164;8.012;2022-12-18T00:57:10;16.00;;;8.25;;
76373;SDS011;65197;50.164;8.012;2022-12-18T00:59:36;16.88;;;7.63;;
76373;SDS011;65197;50.164;8.012;2022-12-18T01:02:01;17.58;;;8.18;;
76373;SDS011;65197;50.164;8.012;2022-12-18T01:04:26;16.15;;;8.35;;
76373;SDS011;65197;50.164;8.012;2022-12-18T01:06:52;20.55;;;8.25;;
76373;SDS011;65197;50.164;8.012;2022-12-18T01:09:17;17.58;;;8.93;;
76373;SDS011;65197;50.164;8.012;2022-12-18T01:11:42;16.48;;;8.27;;
76373;SDS011;65197;50.164;8.012;2022-12-18T01:14:08;18.83;;;8.38;;
76373;SDS011;65197;50.164;8.012;2022-12-18T01:16:33;19.75;;;9.48;;
76373;SDS011;65197;50.164;8.012;2022-12-18T01:18:58;21.73;;;9.27;;
76373;SDS011;65197;50.164;8.012;2022-12-18T01:21:24;20.85;;;10.23;;
76373;SDS011;65197;50.164;8.012;2022-12-18T01:23:53;22.83;;;9.55;;
76373;SDS011;65197;50.164;8.012;2022-12-18T01:26:21;19.48;;;9.10;;
76373;SDS011;65197;50.164;8.012;2022-12-18T01:28:47;20.25;;;8.93;;
76373;SDS011;65197;50.164;8.012;2022-12-18T01:31:17;16.48;;;8.32;;
76373;SDS011;65197;50.164;8.012;2022-12-18T01:33:47;15.82;;;8.70;;
76373;SDS011;65197;50.164;8.012;2022-12-18T01:36:20;20.65;;;9.10;;
76373;SDS011;65197;50.164;8.012;2022-12-18T01:39:00;15.93;;;8.50;;
76373;SDS011;65197;50.164;8.012;2022-12-18T01:41:28;19.08;;;9.95;;
76373;SDS011;65197;50.164;8.012;2022-12-18T01:47:18;16.52;;;7.45;;
76373;SDS011;65197;50.164;8.012;2022-12-18T01:49:49;20.42;;;10.80;;
76373;SDS011;65197;50.164;8.012;2022-12-18T01:52:17;21.67;;;11.43;;
76373;SDS011;65197;50.164;8.012;2022-12-18T01:54:43;20.80;;;11.07;;
76373;SDS011;65197;50.164;8.012;2022-12-18T01:57:10;24.73;;;11.88;;
76373;SDS011;65197;50.164;8.012;2022-12-18T01:59:36;26.02;;;11.50;;
76373;SDS011;65197;50.164;8.012;2022-12-18T02:02:03;25.17;;;10.85;;
76373;SDS011;65197;50.164;8.012;2022-12-18T02:04:29;26.15;;;11.48;;
76373;SDS011;65197;50.164;8.012;2022-12-18T02:06:57;25.55;;;11.48;;
76373;SDS011;65197;50.164;8.012;2022-12-18T02:09:33;29.38;;;11.30;;
76373;SDS011;65197;50.164;8.012;2022-12-18T02:12:23;19.90;;;9.88;;
76373;SDS011;65197;50.164;8.012;2022-12-18T02:14:59;24.02;;;10.30;;
76373;SDS011;65197;50.164;8.012;2022-12-18T02:17:31;21.40;;;10.65;;
76373;SDS011;65197;50.164;8.012;2022-12-18T02:26:11;22.92;;;11.73;;
76373;SDS011;65197;50.164;8.012;2022-12-18T02:28:42;13.63;;;8.05;;
76373;SDS011;65197;50.164;8.012;2022-12-18T02:31:13;22.48;;;11.30;;
76373;SDS011;65197;50.164;8.012;2022-12-18T02:33:44;24.20;;;13.20;;
76373;SDS011;65197;50.164;8.012;2022-12-18T02:36:11;23.60;;;11.68;;
76373;SDS011;65197;50.164;8.012;2022-12-18T02:38:39;16.63;;;8.70;;
76373;SDS011;65197;50.164;8.012;2022-12-18T02:41:06;23.60;;;12.98;;
76373;SDS011;65197;50.164;8.012;2022-12-18T02:43:32;22.15;;;12.93;;
76373;SDS011;65197;50.164;8.012;2022-12-18T02:45:58;26.92;;;13.02;;
76373;SDS011;65197;50.164;8.012;2022-12-18T02:48:34;22.25;;;10.70;;
76373;SDS011;65197;50.164;8.012;2022-12-18T02:51:06;26.65;;;12.15;;
76373;SDS011;65197;50.164;8.012;2022-12-18T02:54:03;20.80;;;10.15;;
76373;SDS011;65197;50.164;8.012;2022-12-18T02:56:36;25.02;;;12.52;;
76373;SDS011;65197;50.164;8.012;2022-12-18T02:59:11;19.10;;;9.80;;
76373;SDS011;65197;50.164;8.012;2022-12-18T03:04:28;20.42;;;10.07;;
76373;SDS011;65197;50.164;8.012;2022-12-18T03:07:01;18.73;;;9.93;;
76373;SDS011;65197;50.164;8.012;2022-12-18T03:09:34;21.88;;;11.80;;
76373;SDS011;65197;50.164;8.012;2022-12-18T03:12:26;26.45;;;12.88;;
76373;SDS011;65197;50.164;8.012;2022-12-18T03:15:02;24.33;;;10.05;;
76373;SDS011;65197;50.164;8.012;2022-12-18T03:17:33;20.92;;;9.88;;
76373;SDS011;65197;50.164;8.012;2022-12-18T03:20:04;31.15;;;15.35;;
76373;SDS011;65197;50.164;8.012;2022-12-18T03:22:34;29.48;;;13.60;;
76373;SDS011;65197;50.164;8.012;2022-12-18T03:25:03;21.63;;;12.07;;
76373;SDS011;65197;50.164;8.012;2022-12-18T03:27:31;12.23;;;8.52;;
76373;SDS011;65197;50.164;8.012;2022-12-18T03:30:01;20.33;;;11.70;;
76373;SDS011;65197;50.164;8.012;2022-12-18T03:32:33;16.90;;;10.10;;
76373;SDS011;65197;50.164;8.012;2022-12-18T03:35:07;24.33;;;10.70;;
76373;SDS011;65197;50.164;8.012;2022-12-18T03:37:35;20.52;;;12.18;;
76373;SDS011;65197;50.164;8.012;2022-12-18T03:40:01;20.63;;;10.60;;
76373;SDS011;65197;50.164;8.012;2022-12-18T03:42:29;29.73;;;12.88;;
76373;SDS011;65197;50.164;8.012;2022-12-18T03:53:05;24.10;;;10.52;;
76373;SDS011;65197;50.164;8.012;2022-12-18T03:55:42;24.17;;;12.57;;
76373;SDS011;65197;50.164;8.012;2022-12-18T03:58:08;19.85;;;7.78;;
76373;SDS011;65197;50.164;8.012;2022-12-18T04:00:37;21.65;;;10.13;;
76373;SDS011;65197;50.164;8.012;2022-12-18T04:03:04;16.92;;;9.60;;
76373;SDS011;65197;50.164;8.012;2022-12-18T04:05:30;29.05;;;13.75;;
76373;SDS011;65197;50.164;8.012;2022-12-18T04:07:58;40.67;;;18.63;;
76373;SDS011;65197;50.164;8.012;2022-12-18T04:10:25;27.23;;;10.73;;
76373;SDS011;65197;50.164;8.012;2022-12-18T04:12:50;29.65;;;13.35;;
76373;SDS011;65197;50.164;8.012;2022-12-18T04:15:15;20.73;;;10.52;;
76373;SDS011;65197;50.164;8.012;2022-12-18T04:17:43;25.80;;;11.25;;
76373;SDS011;65197;50.164;8.012;2022-12-18T04:20:13;24.25;;;10.75;;
76373;SDS011;65197;50.164;8.012;2022-12-18T04:22:39;20.30;;;9.40;;
76373;SDS011;65197;50.164;8.012;2022-12-18T04:25:04;18.52;;;9.38;;
76373;SDS011;65197;50.164;8.012;2022-12-18T04:27:30;27.27;;;11.00;;
76373;SDS011;65197;50.164;8.012;2022-12-18T04:29:55;29.00;;;11.55;;
76373;SDS011;65197;50.164;8.012;2022-12-18T04:32:20;22.45;;;9.90;;
76373;SDS011;65197;50.164;8.012;2022-12-18T04:34:46;17.05;;;8.32;;
76373;SDS011;65197;50.164;8.012;2022-12-18T04:37:11;19.98;;;10.93;;
76373;SDS011;65197;50.164;8.012;2022-12-18T04:39:36;34.92;;;14.65;;
76373;SDS011;65197;50.164;8.012;2022-12-18T04:42:02;27.15;;;13.90;;
76373;SDS011;65197;50.164;8.012;2022-12-18T04:44:27;21.48;;;10.73;;
76373;SDS011;65197;50.164;8.012;2022-12-18T04:46:53;20.70;;;9.90;;
76373;SDS011;65197;50.164;8.012;2022-12-18T04:49:18;29.60;;;13.60;;
76373;SDS011;65197;50.164;8.012;2022-12-18T04:51:43;22.23;;;10.60;;
76373;SDS011;65197;50.164;8.012;2022-12-18T04:54:09;20.10;;;9.68;;
76373;SDS011;65197;50.164;8.012;2022-12-18T04:56:34;28.33;;;12.95;;
76373;SDS011;65197;50.164;8.012;2022-12-18T04:59:00;26.85;;;11.55;;
76373;SDS011;65197;50.164;8.012;2022-12-18T05:01:25;18.60;;;9.15;;
76373;SDS011;65197;50.164;8.012;2022-12-18T05:03:51;19.02;;;10.30;;
76373;SDS011;65197;50.164;8.012;2022-12-18T05:06:17;21.95;;;9.98;;
76373;SDS011;65197;50.164;8.012;2022-12-18T05:08:42;21.85;;;10.02;;
76373;SDS011;65197;50.164;8.012;2022-12-18T05:11:10;20.23;;;11.63;;
76373;SDS011;65197;50.164;8.012;2022-12-18T05:13:40;25.02;;;11.23;;
76373;SDS011;65197;50.164;8.012;2022-12-18T05:16:06;18.55;;;10.05;;
76373;SDS011;65197;50.164;8.012;2022-12-18T05:18:32;17.08;;;7.88;;
76373;SDS011;65197;50.164;8.012;2022-12-18T05:20:57;16.67;;;8.63;;
76373;SDS011;65197;50.164;8.012;2022-12-18T05:23:23;28.05;;;10.68;;
76373;SDS011;65197;50.164;8.012;2022-12-18T05:25:52;22.00;;;9.75;;
76373;SDS011;65197;50.164;8.012;2022-12-18T05:28:21;16.80;;;7.65;;
76373;SDS011;65197;50.164;8.012;2022-12-18T05:30:49;22.25;;;9.60;;
76373;SDS011;65197;50.164;8.012;2022-12-18T05:33:15;18.13;;;9.95;;
76373;SDS011;65197;50.164;8.012;2022-12-18T05:35:41;17.55;;;9.43;;
76373;SDS011;65197;50.164;8.012;2022-12-18T05:38:06;26.00;;;12.40;;
76373;SDS011;65197;50.164;8.012;2022-12-18T05:40:32;27.23;;;9.95;;
76373;SDS011;65197;50.164;8.012;2022-12-18T05:42:57;20.08;;;9.45;;
76373;SDS011;65197;50.164;8.012;2022-12-18T05:45:22;18.25;;;10.13;;
76373;SDS011;65197;50.164;8.012;2022-12-18T05:47:48;14.00;;;8.35;;
76373;SDS011;65197;50.164;8.012;2022-12-18T05:50:13;25.42;;;10.82;;
76373;SDS011;65197;50.164;8.012;2022-12-18T05:52:38;20.00;;;10.05;;
76373;SDS011;65197;50.164;8.012;2022-12-18T05:55:04;11.00;;;5.97;;
76373;SDS011;65197;50.164;8.012;2022-12-18T05:57:29;16.23;;;8.30;;
76373;SDS011;65197;50.164;8.012;2022-12-18T05:59:55;21.50;;;10.00;;
76373;SDS011;65197;50.164;8.012;2022-12-18T06:02:20;27.17;;;12.07;;
76373;SDS011;65197;50.164;8.012;2022-12-18T06:04:46;29.10;;;12.68;;
76373;SDS011;65197;50.164;8.012;2022-12-18T06:07:12;22.25;;;11.55;;
76373;SDS011;65197;50.164;8.012;2022-12-18T06:09:37;19.42;;;10.00;;
76373;SDS011;65197;50.164;8.012;2022-12-18T06:12:03;25.73;;;11.25;;
76373;SDS011;65197;50.164;8.012;2022-12-18T06:14:28;24.42;;;11.68;;
76373;SDS011;65197;50.164;8.012;2022-12-18T06:16:54;27.05;;;9.52;;
76373;SDS011;65197;50.164;8.012;2022-12-18T06:19:19;17.33;;;9.88;;
76373;SDS011;65197;50.164;8.012;2022-12-18T06:21:45;22.05;;;10.68;;
76373;SDS011;65197;50.164;8.012;2022-12-18T06:24:10;15.57;;;8.48;;
76373;SDS011;65197;50.164;8.012;2022-12-18T06:26:39;18.50;;;9.13;;
76373;SDS011;65197;50.164;8.012;2022-12-18T06:29:04;13.98;;;8.63;;
76373;SDS011;65197;50.164;8.012;2022-12-18T06:31:30;23.95;;;8.73;;
76373;SDS011;65197;50.164;8.012;2022-12-18T06:33:56;14.65;;;8.73;;
76373;SDS011;65197;50.164;8.012;2022-12-18T06:36:21;21.83;;;10.82;;
76373;SDS011;65197;50.164;8.012;2022-12-18T06:38:47;20.55;;;9.48;;
76373;SDS011;65197;50.164;8.012;2022-12-18T06:41:13;19.15;;;8.65;;
76373;SDS011;65197;50.164;8.012;2022-12-18T06:43:40;20.73;;;11.25;;
76373;SDS011;65197;50.164;8.012;2022-12-18T06:46:05;18.02;;;7.95;;
76373;SDS011;65197;50.164;8.012;2022-12-18T06:48:31;21.90;;;10.80;;
76373;SDS011;65197;50.164;8.012;2022-12-18T06:50:57;20.17;;;9.77;;
76373;SDS011;65197;50.164;8.012;2022-12-18T06:53:22;22.48;;;10.07;;
76373;SDS011;65197;50.164;8.012;2022-12-18T06:55:48;22.98;;;9.07;;
76373;SDS011;65197;50.164;8.012;2022-12-18T06:58:13;22.98;;;10.73;;
76373;SDS011;65197;50.164;8.012;2022-12-18T07:00:39;20.20;;;9.98;;
76373;SDS011;65197;50.164;8.012;2022-12-18T07:03:04;10.30;;;6.60;;
76373;SDS011;65197;50.164;8.012;2022-12-18T07:05:30;25.67;;;11.40;;
76373;SDS011;65197;50.164;8.012;2022-12-18T07:07:55;19.63;;;10.40;;
76373;SDS011;65197;50.164;8.012;2022-12-18T07:10:20;26.80;;;12.45;;
76373;SDS011;65197;50.164;8.012;2022-12-18T07:12:49;21.83;;;9.68;;
76373;SDS011;65197;50.164;8.012;2022-12-18T07:15:14;29.48;;;12.52;;
76373;SDS011;65197;50.164;8.012;2022-12-18T07:17:40;17.55;;;9.85;;
76373;SDS011;65197;50.164;8.012;2022-12-18T07:20:05;15.90;;;8.88;;
76373;SDS011;65197;50.164;8.012;2022-12-18T07:22:32;17.80;;;9.98;;
76373;SDS011;65197;50.164;8.012;2022-12-18T07:24:59;19.33;;;10.10;;
76373;SDS011;65197;50.164;8.012;2022-12-18T07:27:27;25.15;;;11.68;;
76373;SDS011;65197;50.164;8.012;2022-12-18T07:29:54;16.27;;;11.13;;
76373;SDS011;65197;50.164;8.012;2022-12-18T07:32:23;20.05;;;10.88;;
76373;SDS011;65197;50.164;8.012;2022-12-18T07:34:48;31.10;;;14.35;;
76373;SDS011;65197;50.164;8.012;2022-12-18T07:37:15;25.92;;;13.68;;
76373;SDS011;65197;50.164;8.012;2022-12-18T07:39:42;23.15;;;10.35;;
76373;SDS011;65197;50.164;8.012;2022-12-18T07:42:07;26.23;;;12.75;;
76373;SDS011;65197;50.164;8.012;2022-12-18T07:44:51;28.45;;;10.85;;
76373;SDS011;65197;50.164;8.012;2022-12-18T07:47:16;26.05;;;11.65;;
76373;SDS011;65197;50.164;8.012;2022-12-18T07:49:41;20.23;;;9.77;;
76373;SDS011;65197;50.164;8.012;2022-12-18T07:52:07;21.80;;;11.32;;
76373;SDS011;65197;50.164;8.012;2022-12-18T07:54:34;26.38;;;9.75;;
76373;SDS011;65197;50.164;8.012;2022-12-18T07:56:59;21.65;;;10.00;;
76373;SDS011;65197;50.164;8.012;2022-12-18T07:59:25;26.85;;;11.05;;
76373;SDS011;65197;50.164;8.012;2022-12-18T08:01:50;20.70;;;9.85;;
76373;SDS011;65197;50.164;8.012;2022-12-18T08:04:15;24.77;;;11.43;;
76373;SDS011;65197;50.164;8.012;2022-12-18T08:06:41;25.10;;;10.20;;
76373;SDS011;65197;50.164;8.012;2022-12-18T08:09:06;23.70;;;10.32;;
76373;SDS011;65197;50.164;8.012;2022-12-18T08:11:33;25.63;;;11.75;;
76373;SDS011;65197;50.164;8.012;2022-12-18T08:13:58;24.15;;;10.43;;
76373;SDS011;65197;50.164;8.012;2022-12-18T08:16:24;20.98;;;9.98;;
76373;SDS011;65197;50.164;8.012;2022-12-18T08:18:51;20.92;;;10.43;;
76373;SDS011;65197;50.164;8.012;2022-12-18T08:21:21;21.75;;;9.13;;
76373;SDS011;65197;50.164;8.012;2022-12-18T08:23:50;18.85;;;10.82;;
76373;SDS011;65197;50.164;8.012;2022-12-18T08:26:16;24.13;;;10.65;;
76373;SDS011;65197;50.164;8.012;2022-12-18T08:28:42;19.23;;;8.77;;
76373;SDS011;65197;50.164;8.012;2022-12-18T08:31:08;19.30;;;9.57;;
76373;SDS011;65197;50.164;8.012;2022-12-18T08:33:34;21.77;;;10.20;;
76373;SDS011;65197;50.164;8.012;2022-12-18T08:36:01;14.65;;;8.00;;
76373;SDS011;65197;50.164;8.012;2022-12-18T08:38:27;17.25;;;8.63;;
76373;SDS011;65197;50.164;8.012;2022-12-18T08:40:59;20.25;;;10.13;;
76373;SDS011;65197;50.164;8.012;2022-12-18T08:43:25;19.77;;;8.65;;
76373;SDS011;65197;50.164;8.012;2022-12-18T08:46:09;20.10;;;8.80;;
76373;SDS011;65197;50.164;8.012;2022-12-18T08:48:35;18.88;;;10.07;;
76373;SDS011;65197;50.164;8.012;2022-12-18T08:51:00;22.38;;;9.68;;
76373;SDS011;65197;50.164;8.012;2022-12-18T08:53:26;17.05;;;9.70;;
76373;SDS011;65197;50.164;8.012;2022-12-18T08:55:52;18.52;;;9.82;;
76373;SDS011;65197;50.164;8.012;2022-12-18T08:58:18;18.05;;;8.02;;
76373;SDS011;65197;50.164;8.012;2022-12-18T09:00:50;19.30;;;9.13;;
76373;SDS011;65197;50.164;8.012;2022-12-18T09:03:18;17.35;;;8.25;;
76373;SDS011;65197;50.164;8.012;2022-12-18T09:05:47;16.50;;;8.30;;
76373;SDS011;65197;50.164;8.012;2022-12-18T09:08:13;17.92;;;8.13;;
76373;SDS011;65197;50.164;8.012;2022-12-18T09:10:46;17.20;;;9.07;;
76373;SDS011;65197;50.164;8.012;2022-12-18T09:13:13;20.00;;;8.27;;
76373;SDS011;65197;50.164;8.012;2022-12-18T09:15:41;15.50;;;7.47;;
76373;SDS011;65197;50.164;8.012;2022-12-18T09:18:07;17.40;;;8.13;;
76373;SDS011;65197;50.164;8.012;2022-12-18T09:20:34;15.40;;;9.30;;
76373;SDS011;65197;50.164;8.012;2022-12-18T09:23:00;21.67;;;10.88;;
76373;SDS011;65197;50.164;8.012;2022-12-18T09:25:28;14.65;;;8.02;;
76373;SDS011;65197;50.164;8.012;2022-12-18T09:27:58;17.52;;;10.05;;
76373;SDS011;65197;50.164;8.012;2022-12-18T09:32:52;21.33;;;9.00;;
76373;SDS011;65197;50.164;8.012;2022-12-18T09:35:19;15.07;;;8.85;;
76373;SDS011;65197;50.164;8.012;2022-12-18T09:37:44;21.98;;;9.95;;
76373;SDS011;65197;50.164;8.012;2022-12-18T09:40:16;14.90;;;7.60;;
76373;SDS011;65197;50.164;8.012;2022-12-18T09:45:14;14.80;;;6.85;;
76373;SDS011;65197;50.164;8.012;2022-12-18T09:47:41;22.00;;;11.48;;
76373;SDS011;65197;50.164;8.012;2022-12-18T09:53:02;15.40;;;7.90;;
76373;SDS011;65197;50.164;8.012;2022-12-18T10:00:39;15.77;;;8.88;;
76373;SDS011;65197;50.164;8.012;2022-12-18T10:03:08;18.40;;;9.95;;
76373;SDS011;65197;50.164;8.012;2022-12-18T10:08:33;12.43;;;6.53;;
76373;SDS011;65197;50.164;8.012;2022-12-18T10:11:14;16.00;;;9.18;;
76373;SDS011;65197;50.164;8.012;2022-12-18T10:13:58;14.85;;;7.35;;
76373;SDS011;65197;50.164;8.012;2022-12-18T10:25:05;22.25;;;10.60;;
76373;SDS011;65197;50.164;8.012;2022-12-18T10:27:47;20.10;;;10.85;;
76373;SDS011;65197;50.164;8.012;2022-12-18T10:30:31;23.17;;;10.23;;
76373;SDS011;65197;50.164;8.012;2022-12-18T10:33:00;20.00;;;10.82;;
76373;SDS011;65197;50.164;8.012;2022-12-18T10:35:26;20.13;;;9.63;;
76373;SDS011;65197;50.164;8.012;2022-12-18T10:37:59;20.48;;;10.48;;
76373;SDS011;65197;50.164;8.012;2022-12-18T10:40:25;20.65;;;10.95;;
76373;SDS011;65197;50.164;8.012;2022-12-18T10:43:04;22.25;;;9.80;;
76373;SDS011;65197;50.164;8.012;2022-12-18T10:45:31;17.90;;;9.18;;
76373;SDS011;65197;50.164;8.012;2022-12-18T10:47:56;22.40;;;9.63;;
76373;SDS011;65197;50.164;8.012;2022-12-18T10:50:24;20.83;;;10.98;;
76373;SDS011;65197;50.164;8.012;2022-12-18T10:53:01;24.77;;;10.75;;
76373;SDS011;65197;50.164;8.012;2022-12-18T10:55:38;28.17;;;11.52;;
76373;SDS011;65197;50.164;8.012;2022-12-18T11:01:18;18.90;;;9.90;;
76373;SDS011;65197;50.164;8.012;2022-12-18T11:06:16;17.02;;;9.00;;
76373;SDS011;65197;50.164;8.012;2022-12-18T11:08:57;29.58;;;11.18;;
76373;SDS011;65197;50.164;8.012;2022-12-18T11:11:29;23.98;;;11.88;;
76373;SDS011;65197;50.164;8.012;2022-12-18T11:13:58;27.30;;;11.52;;
76373;SDS011;65197;50.164;8.012;2022-12-18T11:16:27;21.25;;;11.20;;
76373;SDS011;65197;50.164;8.012;2022-12-18T11:19:13;25.63;;;12.20;;
76373;SDS011;65197;50.164;8.012;2022-12-18T11:21:49;14.38;;;7.63;;
76373;SDS011;65197;50.164;8.012;2022-12-18T11:24:31;18.48;;;10.05;;
76373;SDS011;65197;50.164;8.012;2022-12-18T11:27:03;15.63;;;8.82;;
76373;SDS011;65197;50.164;8.012;2022-12-18T11:32:12;18.48;;;9.85;;
76373;SDS011;65197;50.164;8.012;2022-12-18T11:34:52;20.85;;;10.50;;
76373;SDS011;65197;50.164;8.012;2022-12-18T11:37:24;23.23;;;12.07;;
76373;SDS011;65197;50.164;8.012;2022-12-18T11:40:25;17.50;;;9.15;;
76373;SDS011;65197;50.164;8.012;2022-12-18T11:45:34;20.02;;;11.23;;
76373;SDS011;65197;50.164;8.012;2022-12-18T11:48:16;19.20;;;9.10;;
76373;SDS011;65197;50.164;8.012;2022-12-18T11:50:50;27.67;;;11.77;;
76373;SDS011;65197;50.164;8.012;2022-12-18T11:53:18;15.75;;;8.27;;
76373;SDS011;65197;50.164;8.012;2022-12-18T11:55:51;16.83;;;9.40;;
76373;SDS011;65197;50.164;8.012;2022-12-18T12:01:14;22.65;;;9.95;;
76373;SDS011;65197;50.164;8.012;2022-12-18T12:04:17;22.48;;;10.82;;
76373;SDS011;65197;50.164;8.012;2022-12-18T12:07:07;18.45;;;8.13;;
76373;SDS011;65197;50.164;8.012;2022-12-18T12:10:01;24.77;;;11.68;;
76373;SDS011;65197;50.164;8.012;2022-12-18T12:13:22;16.80;;;9.80;;
76373;SDS011;65197;50.164;8.012;2022-12-18T12:16:16;24.58;;;11.98;;
76373;SDS011;65197;50.164;8.012;2022-12-18T12:24:56;23.58;;;12.02;;
76373;SDS011;65197;50.164;8.012;2022-12-18T12:38:35;32.13;;;13.98;;
76373;SDS011;65197;50.164;8.012;2022-12-18T12:41:06;32.38;;;14.88;;
76373;SDS011;65197;50.164;8.012;2022-12-18T12:43:57;25.25;;;14.00;;
76373;SDS011;65197;50.164;8.012;2022-12-18T12:46:27;28.95;;;15.15;;
76373;SDS011;65197;50.164;8.012;2022-12-18T12:48:56;29.98;;;15.05;;
76373;SDS011;65197;50.164;8.012;2022-12-18T12:51:26;28.13;;;15.68;;
76373;SDS011;65197;50.164;8.012;2022-12-18T12:53:55;37.53;;;16.60;;
76373;SDS011;65197;50.164;8.012;2022-12-18T12:56:22;35.47;;;17.98;;
76373;SDS011;65197;50.164;8.012;2022-12-18T12:58:58;32.97;;;15.98;;
76373;SDS011;65197;50.164;8.012;2022-12-18T13:04:51;37.65;;;17.27;;
76373;SDS011;65197;50.164;8.012;2022-12-18T13:13:00;24.23;;;12.00;;
76373;SDS011;65197;50.164;8.012;2022-12-18T13:20:35;24.05;;;11.75;;
76373;SDS011;65197;50.164;8.012;2022-12-18T13:31:05;22.42;;;12.23;;
76373;SDS011;65197;50.164;8.012;2022-12-18T13:38:35;27.45;;;12.93;;
76373;SDS011;65197;50.164;8.012;2022-12-18T13:43:49;24.90;;;12.63;;
76373;SDS011;65197;50.164;8.012;2022-12-18T13:46:29;27.85;;;13.77;;
76373;SDS011;65197;50.164;8.012;2022-12-18T13:51:39;22.83;;;9.18;;
76373;SDS011;65197;50.164;8.012;2022-12-18T13:56:51;19.25;;;9.85;;
76373;SDS011;65197;50.164;8.012;2022-12-18T13:59:21;22.35;;;12.35;;
76373;SDS011;65197;50.164;8.012;2022-12-18T14:01:53;25.45;;;13.55;;
76373;SDS011;65197;50.164;8.012;2022-12-18T14:09:54;24.45;;;11.98;;
76373;SDS011;65197;50.164;8.012;2022-12-18T14:12:23;16.95;;;8.77;;
76373;SDS011;65197;50.164;8.012;2022-12-18T14:15:31;30.45;;;15.35;;
76373;SDS011;65197;50.164;8.012;2022-12-18T14:17:57;32.50;;;13.95;;
76373;SDS011;65197;50.164;8.012;2022-12-18T14:20:25;24.52;;;12.48;;
76373;SDS011;65197;50.164;8.012;2022-12-18T14:22:52;26.27;;;11.63;;
76373;SDS011;65197;50.164;8.012;2022-12-18T14:25:23;34.15;;;15.02;;
76373;SDS011;65197;50.164;8.012;2022-12-18T14:28:09;31.05;;;14.13;;
76373;SDS011;65197;50.164;8.012;2022-12-18T14:30:40;25.73;;;12.35;;
76373;SDS011;65197;50.164;8.012;2022-12-18T14:33:11;30.83;;;11.55;;
76373;SDS011;65197;50.164;8.012;2022-12-18T14:35:58;25.65;;;12.38;;
76373;SDS011;65197;50.164;8.012;2022-12-18T14:38:29;35.65;;;14.75;;
76373;SDS011;65197;50.164;8.012;2022-12-18T14:41:21;22.58;;;12.48;;
76373;SDS011;65197;50.164;8.012;2022-12-18T14:43:48;22.45;;;10.73;;
76373;SDS011;65197;50.164;8.012;2022-12-18T14:46:28;38.40;;;15.20;;
76373;SDS011;65197;50.164;8.012;2022-12-18T14:48:58;27.52;;;12.43;;
76373;SDS011;65197;50.164;8.012;2022-12-18T14:51:25;21.05;;;10.65;;
76373;SDS011;65197;50.164;8.012;2022-12-18T14:56:32;20.92;;;11.50;;
76373;SDS011;65197;50.164;8.012;2022-12-18T14:59:03;26.48;;;12.32;;
76373;SDS011;65197;50.164;8.012;2022-12-18T15:01:35;30.77;;;12.85;;
76373;SDS011;65197;50.164;8.012;2022-12-18T15:04:03;35.78;;;15.93;;
76373;SDS011;65197;50.164;8.012;2022-12-18T15:06:38;30.73;;;13.40;;
76373;SDS011;65197;50.164;8.012;2022-12-18T15:09:20;27.85;;;15.95;;
76373;SDS011;65197;50.164;8.012;2022-12-18T15:11:48;32.30;;;14.30;;
76373;SDS011;65197;50.164;8.012;2022-12-18T15:14:23;20.55;;;10.38;;
76373;SDS011;65197;50.164;8.012;2022-12-18T15:16:57;20.67;;;11.00;;
76373;SDS011;65197;50.164;8.012;2022-12-18T15:19:35;31.60;;;14.95;;
76373;SDS011;65197;50.164;8.012;2022-12-18T15:22:04;45.05;;;16.90;;
76373;SDS011;65197;50.164;8.012;2022-12-18T15:24:40;35.25;;;16.13;;
76373;SDS011;65197;50.164;8.012;2022-12-18T15:27:17;30.75;;;12.45;;
76373;SDS011;65197;50.164;8.012;2022-12-18T15:32:39;25.88;;;11.85;;
76373;SDS011;65197;50.164;8.012;2022-12-18T15:37:33;23.83;;;11.25;;
76373;SDS011;65197;50.164;8.012;2022-12-18T15:39:58;31.23;;;14.73;;
76373;SDS011;65197;50.164;8.012;2022-12-18T15:42:24;31.55;;;16.67;;
76373;SDS011;65197;50.164;8.012;2022-12-18T15:45:11;38.65;;;16.95;;
76373;SDS011;65197;50.164;8.012;2022-12-18T15:47:37;32.17;;;13.20;;
76373;SDS011;65197;50.164;8.012;2022-12-18T15:50:03;39.08;;;15.90;;
76373;SDS011;65197;50.164;8.012;2022-12-18T15:52:28;29.00;;;12.95;;
76373;SDS011;65197;50.164;8.012;2022-12-18T15:54:54;29.02;;;14.38;;
76373;SDS011;65197;50.164;8.012;2022-12-18T15:57:38;34.22;;;12.85;;
76373;SDS011;65197;50.164;8.012;2022-12-18T16:00:03;37.97;;;14.25;;
76373;SDS011;65197;50.164;8.012;2022-12-18T16:02:30;25.83;;;11.70;;
76373;SDS011;65197;50.164;8.012;2022-12-18T16:04:55;29.73;;;11.27;;
76373;SDS011;65197;50.164;8.012;2022-12-18T16:07:21;41.08;;;13.32;;
76373;SDS011;65197;50.164;8.012;2022-12-18T16:09:46;28.15;;;11.57;;
76373;SDS011;65197;50.164;8.012;2022-12-18T16:12:16;41.60;;;17.02;;
76373;SDS011;65197;50.164;8.012;2022-12-18T16:14:44;26.63;;;13.35;;
76373;SDS011;65197;50.164;8.012;2022-12-18T16:17:10;37.72;;;15.65;;
76373;SDS011;65197;50.164;8.012;2022-12-18T16:19:37;30.40;;;10.90;;
76373;SDS011;65197;50.164;8.012;2022-12-18T16:22:03;32.60;;;10.82;;
76373;SDS011;65197;50.164;8.012;2022-12-18T16:24:29;29.77;;;11.88;;
76373;SDS011;65197;50.164;8.012;2022-12-18T16:26:57;35.97;;;11.45;;
76373;SDS011;65197;50.164;8.012;2022-12-18T16:29:24;30.85;;;14.15;;
76373;SDS011;65197;50.164;8.012;2022-12-18T16:31:55;27.67;;;11.80;;
76373;SDS011;65197;50.164;8.012;2022-12-18T16:34:24;35.13;;;12.73;;
76373;SDS011;65197;50.164;8.012;2022-12-18T16:36:52;32.22;;;13.50;;
76373;SDS011;65197;50.164;8.012;2022-12-18T16:39:18;25.13;;;11.25;;
76373;SDS011;65197;50.164;8.012;2022-12-18T16:41:44;30.90;;;12.68;;
76373;SDS011;65197;50.164;8.012;2022-12-18T16:44:10;34.28;;;16.35;;